AirNav   Air Wisconsin Up To $57,000 Bonus
 
 370 users online  

KCEA Cessna Aircraft Field Airport
Wichita, Kansas, USA

GOING TO WICHITA?


FAA INFORMATION EFFECTIVE 08 OCTOBER 2020

Location

FAA Identifier: CEA
Lat/Long: 37-38-54.9540N 097-15-02.1580W
37-38.915900N 097-15.035967W
37.6485983,-97.2505994
(estimated)
Elevation: 1378 ft. / 420.0 m (surveyed)
Variation: 08E (1980)
From city: 4 miles SE of WICHITA, KS
Time zone: UTC -5 (UTC -6 during Standard Time)
Zip code: 67210

Airport Operations

Airport use: Open to the public
Activation date: 04/1940
Control tower: no
ARTCC: KANSAS CITY CENTER
FSS: WICHITA FLIGHT SERVICE STATION
NOTAMs facility: ICT (NOTAM-D service available)
Attendance: UNATNDD
Wind indicator: yes
Segmented circle: yes

Airport Communications

CTAF: 122.9
WICHITA APPROACH: 134.8
WICHITA DEPARTURE: 134.8
CLEARANCE DELIVERY: 125.0
WX AWOS-3PT at BEC (3 nm NE): 119.45 (316-515-7116)
WX ASOS at AAO (6 nm N): 134.025 (316-636-2541)
WX AWOS-3PT at 3AU (8 nm E): 124.175 (316-733-6696)
WX ASOS at ICT (9 nm W): PHONE 316-945-8022
WX AWOS-3 at 1K1 (10 nm NE): 118.3 (316-530-6004)

Nearby radio navigation aids

VOR radial/distance  VOR name  Freq  Var
ICTr103/16.8WICHITA VORTAC113.8007E
HUTr119/38.6HUTCHINSON VOR/DME116.8004E

 
NDB name  Hdg/Dist  Freq  Var  ID
PICHE063/10.633204EIC .. -.-.
NEWTON172/25.028106EEWK . .-- -.-

Airport Services

Airframe service: NONE
Powerplant service: NONE
Bottled oxygen: NONE
Bulk oxygen: NONE

Runway Information

Runway 17/35

Dimensions: 3873 x 40 ft. / 1180 x 12 m
Surface: asphalt, in good condition
RUNWAY 17  RUNWAY 35
Latitude: 37-39.234483N37-38.596317N
Longitude: 097-15.035200W097-15.035750W
Elevation: 1373.0 ft.1373.0 ft.
Traffic pattern: leftright
Runway heading: 172 magnetic, 180 true352 magnetic, 000 true
Displaced threshold: 150 ft.150 ft.
Markings: basic, in good conditionbasic, in good condition
Obstructions: 10 ft. road, 252 ft. from runway, 5:1 slope to clear
APCH RATIO 40:1 TO DSPLCD THLD.
13 ft. road, 210 ft. from runway
8 FT FENCE 170 FT FM RY END.

Airport Ownership and Management from official FAA records

Ownership: Privately-owned
Owner: CESSNA AIRCRAFT COMPANY
10511 EAST CENTRAL
WICHITA, KS 67277
Phone (316) 515-6000
Manager: TODD BAYLESS
10511 EAST CENTRAL
WICHITA, KS 67201
Phone (316) 515-8365

Airport Operational Statistics

Aircraft based on the field: 16
Single engine airplanes: 15
Multi engine airplanes: 1
    
Aircraft operations: 100/year *
100% transient general aviation
* for 12-month period ending 19 July 2019

Additional Remarks

ACFT OPNS SHOULD COORDINATE WITH MC CONNELL AFB PRIOR TO ARRIVAL AND DEP - CONTROL TOWER 127.25.
RWY 17R/35L USED ONLY BY CESSNA PERSONNEL; CLOSED TO PUBLIC.
FOR CD CTC WICHITA APCH AT 316-350-1520.

Instrument Procedures

NOTE: All procedures below are presented as PDF files. If you need a reader for these files, you should download the free Adobe Reader.

NOT FOR NAVIGATION. Please procure official charts for flight.
FAA instrument procedures published for use from 08 October 2020 at 0901Z to 05 November 2020 at 0900Z.

 
IAPs - Instrument Approach Procedures
RNAV (GPS)-D   download (188KB)
VOR-C   download (194KB)

Other nearby airports with instrument procedures:

KIAB - Mc Connell Air Force Base (2 nm SW)
KBEC - Beech Factory Airport (3 nm NE)
KAAO - Colonel James Jabara Airport (6 nm N)
3AU - Augusta Municipal Airport (8 nm E)
KICT - Wichita Dwight D Eisenhower National Airport (9 nm W)
1K1 - Lloyd Stearman Field Airport (10 nm NE)
 
Loc | Ops | Rwys | IFR | FBO | Links
Com | Nav | Svcs | Stats | Notes
Area around KCEA (Cessna Aircraft Field Airport)
 
Road maps at: MapQuest Bing Google
 
Aerial photo
WARNING: Photo may not be current or correct
Aerial photo of KCEA (Cessna Aircraft Field Airport)
Do you have a better or more recent aerial photo of Cessna Aircraft Field Airport that you would like to share? If so, please send us your photo.

 
Sectional chart

 
Airport distance calculator
Flying to Cessna Aircraft Field Airport? Find the distance to fly.

From to KCEA

Sunrise and sunset
Times for 22-Oct-2020
 Local
(UTC-5)
 Zulu
(UTC)
Morning civil twilight07:1912:19
Sunrise07:4612:46
Sunset18:4123:41
Evening civil twilight19:0700:07

Current date and time
Zulu (UTC)  22-Oct-2020 07:42:41
Local (UTC-5)  22-Oct-2020 02:42:41
 
METAR
KIAB 
2nm S 
220656Z AUTO 17014KT 10SM CLR 20/16 A2986 RMK AO2 SLP108 T01960158
KBEC 
3nm NE 
220715Z AUTO 17010KT 18/16 A2987 RMK AO2 T01800161 PWINO
KAAO 
6nm N 
220654Z AUTO 17009KT 10SM CLR 17/16 A2987 RMK AO2 SLP110 T01720156
K3AU 
8nm E 
220715Z AUTO 16009KT 10SM CLR 18/17 A2988 RMK AO2
KICT 
9nm W 
220653Z 17012KT 10SM CLR 19/17 A2986 RMK AO2 SLP106 T01890167
K1K1 
10nm NE 
220715Z AUTO 18007KT 10SM CLR 16/16 A2988 RMK AO2 T01610161
TAF
KIAB 
2nm S 
220326Z 2203/2308 11012KT 8000 BR FEW015 520042 QNH2984INS BECMG 2211/2212 17015KT 8000 BR SCT010 520032 QNH2982INS BECMG 2214/2215 18025G35KT 4800 BR BKN007 OVC015 520032 QNH2981INS BECMG 2217/2218 19030G40KT 9999 NSW BKN010 OVC020 510023 QNH2971INS TEMPO 2223/2301 18009KT BECMG 2302/2303 36020G35KT 8000 -SHRA VCTS SCT007CB BKN010 OVC015 QNH2992INS TEMPO 2302/2308 22030G40KT 8000 -TSRA BKN004CB OVC010 TX24/2220Z TN11/2210Z
KICT 
9nm W 
220520Z 2206/2306 14010KT P6SM SCT020 BKN035 WS020/20045KT FM220800 17012KT P6SM SCT050 WS020/20045KT FM221200 18018G26KT P6SM SCT040 WS020/21050KT FM221600 19027G37KT P6SM SCT120 FM230000 17016G24KT P6SM SCT100 FM230200 36017G25KT P6SM OVC020
NOTAMs
Click for the latest NOTAMs
NOTAMs are issued by the DoD/FAA and will open in a separate window not controlled by AirNav.

 

 
 

Would you like to see your business listed on this page?

 If your business provides an interesting product or service to pilots, flight crews, aircraft, or users of the Cessna Aircraft Field Airport, you should consider listing it here.  To start the listing process, click on the button below
 
Add a business
 

Other Pages about Cessna Aircraft Field Airport

Update a link
 
Copyright © AirNav, LLC. All rights reserved. Privacy Policy  Contact